sensor_id;sensor_type;location;lat;lon;timestamp;pressure;altitude;pressure_sealevel;temperature;humidity
35888;BME280;21990;42.540;23.496;2023-10-09T00:00:12;93986.75;;;17.95;63.42
35888;BME280;21990;42.540;23.496;2023-10-09T00:02:56;93971.34;;;17.91;63.72
35888;BME280;21990;42.540;23.496;2023-10-09T00:05:28;93977.06;;;17.91;63.60
35888;BME280;21990;42.540;23.496;2023-10-09T00:08:17;93982.19;;;17.92;63.78
35888;BME280;21990;42.540;23.496;2023-10-09T00:10:59;93979.16;;;17.90;63.66
35888;BME280;21990;42.540;23.496;2023-10-09T00:13:39;93974.81;;;17.82;64.13
35888;BME280;21990;42.540;23.496;2023-10-09T00:16:18;93968.91;;;17.80;64.13
35888;BME280;21990;42.540;23.496;2023-10-09T00:19:02;93968.13;;;17.87;63.89
35888;BME280;21990;42.540;23.496;2023-10-09T00:21:43;93974.41;;;17.85;63.89
35888;BME280;21990;42.540;23.496;2023-10-09T00:24:10;93968.50;;;17.83;63.93
35888;BME280;21990;42.540;23.496;2023-10-09T00:26:47;93965.66;;;17.76;63.84
35888;BME280;21990;42.540;23.496;2023-10-09T00:29:15;93970.44;;;17.73;64.07
35888;BME280;21990;42.540;23.496;2023-10-09T00:31:51;93978.22;;;17.73;64.31
35888;BME280;21990;42.540;23.496;2023-10-09T00:34:21;93972.91;;;17.69;64.29
35888;BME280;21990;42.540;23.496;2023-10-09T00:36:48;93971.56;;;17.70;64.42
35888;BME280;21990;42.540;23.496;2023-10-09T00:39:17;93984.31;;;17.62;64.54
35888;BME280;21990;42.540;23.496;2023-10-09T00:41:59;93985.63;;;17.68;64.19
35888;BME280;21990;42.540;23.496;2023-10-09T00:44:27;94000.25;;;17.72;64.22
35888;BME280;21990;42.540;23.496;2023-10-09T00:47:05;93987.53;;;17.66;64.29
35888;BME280;21990;42.540;23.496;2023-10-09T00:49:37;93987.91;;;17.70;64.32
35888;BME280;21990;42.540;23.496;2023-10-09T00:52:08;93993.41;;;17.60;64.65
35888;BME280;21990;42.540;23.496;2023-10-09T00:54:42;93989.03;;;17.59;65.00
35888;BME280;21990;42.540;23.496;2023-10-09T00:57:09;93996.25;;;17.60;64.33
35888;BME280;21990;42.540;23.496;2023-10-09T00:59:40;93985.97;;;17.49;64.60
35888;BME280;21990;42.540;23.496;2023-10-09T01:02:08;94001.69;;;17.35;64.87
35888;BME280;21990;42.540;23.496;2023-10-09T01:04:35;93996.97;;;17.30;65.15
35888;BME280;21990;42.540;23.496;2023-10-09T01:07:08;93992.03;;;17.23;65.62
35888;BME280;21990;42.540;23.496;2023-10-09T01:09:40;93998.66;;;17.26;65.23
35888;BME280;21990;42.540;23.496;2023-10-09T01:12:09;93998.66;;;17.26;65.14
35888;BME280;21990;42.540;23.496;2023-10-09T01:14:43;94013.09;;;17.28;65.51
35888;BME280;21990;42.540;23.496;2023-10-09T01:17:09;94014.97;;;17.25;64.98
35888;BME280;21990;42.540;23.496;2023-10-09T01:19:35;93994.66;;;17.29;64.79
35888;BME280;21990;42.540;23.496;2023-10-09T01:22:00;94006.06;;;17.29;64.59
35888;BME280;21990;42.540;23.496;2023-10-09T01:24:30;94014.97;;;17.25;64.74
35888;BME280;21990;42.540;23.496;2023-10-09T01:27:02;94029.56;;;17.14;65.11
35888;BME280;21990;42.540;23.496;2023-10-09T01:29:30;94028.03;;;17.05;65.00
35888;BME280;21990;42.540;23.496;2023-10-09T01:31:56;94026.09;;;17.00;64.93
35888;BME280;21990;42.540;23.496;2023-10-09T01:34:26;94020.41;;;17.00;64.90
35888;BME280;21990;42.540;23.496;2023-10-09T01:37:08;94014.69;;;16.93;64.68
35888;BME280;21990;42.540;23.496;2023-10-09T01:39:46;94026.81;;;16.86;64.80
35888;BME280;21990;42.540;23.496;2023-10-09T01:42:14;94030.63;;;16.81;65.36
35888;BME280;21990;42.540;23.496;2023-10-09T01:45:01;94018.78;;;16.69;64.78
35888;BME280;21990;42.540;23.496;2023-10-09T01:47:41;94032.41;;;16.63;65.08
35888;BME280;21990;42.540;23.496;2023-10-09T01:50:16;94042.78;;;16.53;65.13
35888;BME280;21990;42.540;23.496;2023-10-09T01:52:50;94051.75;;;16.57;64.69
35888;BME280;21990;42.540;23.496;2023-10-09T01:55:19;94060.03;;;16.55;64.93
35888;BME280;21990;42.540;23.496;2023-10-09T01:58:08;94051.75;;;16.57;64.27
35888;BME280;21990;42.540;23.496;2023-10-09T02:00:42;94049.41;;;16.55;63.94
35888;BME280;21990;42.540;23.496;2023-10-09T02:03:13;94055.25;;;16.50;63.63
35888;BME280;21990;42.540;23.496;2023-10-09T02:05:49;94092.25;;;16.50;63.58
35888;BME280;21990;42.540;23.496;2023-10-09T02:08:17;94079.25;;;16.34;63.97
35888;BME280;21990;42.540;23.496;2023-10-09T02:10:47;94076.38;;;16.26;64.12
35888;BME280;21990;42.540;23.496;2023-10-09T02:13:13;94074.06;;;16.25;63.66
35888;BME280;21990;42.540;23.496;2023-10-09T02:15:56;94082.34;;;16.15;64.00
35888;BME280;21990;42.540;23.496;2023-10-09T02:18:38;94073.63;;;16.13;63.78
35888;BME280;21990;42.540;23.496;2023-10-09T02:21:19;94067.50;;;16.09;64.23
35888;BME280;21990;42.540;23.496;2023-10-09T02:23:58;94084.09;;;15.97;63.99
35888;BME280;21990;42.540;23.496;2023-10-09T02:26:28;94086.88;;;15.90;64.72
35888;BME280;21990;42.540;23.496;2023-10-09T02:29:11;94093.19;;;15.75;65.57
35888;BME280;21990;42.540;23.496;2023-10-09T02:31:40;94096.16;;;15.70;65.50
35888;BME280;21990;42.540;23.496;2023-10-09T02:34:12;94099.47;;;15.60;65.57
35888;BME280;21990;42.540;23.496;2023-10-09T02:36:37;94097.97;;;15.59;66.12
35888;BME280;21990;42.540;23.496;2023-10-09T02:39:10;94088.47;;;15.57;66.01
35888;BME280;21990;42.540;23.496;2023-10-09T02:41:57;94096.03;;;15.54;65.89
35888;BME280;21990;42.540;23.496;2023-10-09T02:44:44;94101.38;;;15.45;65.92
35888;BME280;21990;42.540;23.496;2023-10-09T02:47:15;94102.41;;;15.34;66.53
35888;BME280;21990;42.540;23.496;2023-10-09T02:49:54;94097.50;;;15.35;66.18
35888;BME280;21990;42.540;23.496;2023-10-09T02:52:25;94120.09;;;15.40;66.25
35888;BME280;21990;42.540;23.496;2023-10-09T02:54:57;94105.13;;;15.40;66.09
35888;BME280;21990;42.540;23.496;2023-10-09T02:57:33;94113.91;;;15.29;66.18
35888;BME280;21990;42.540;23.496;2023-10-09T03:00:06;94130.81;;;15.34;66.19
35888;BME280;21990;42.540;23.496;2023-10-09T03:02:43;94129.84;;;15.32;65.92
35888;BME280;21990;42.540;23.496;2023-10-09T03:05:09;94120.66;;;15.26;66.08
35888;BME280;21990;42.540;23.496;2023-10-09T03:07:38;94128.44;;;15.25;65.69
35888;BME280;21990;42.540;23.496;2023-10-09T03:10:06;94128.13;;;15.15;65.83
35888;BME280;21990;42.540;23.496;2023-10-09T03:12:35;94129.31;;;15.20;65.80
35888;BME280;21990;42.540;23.496;2023-10-09T03:15:01;94136.09;;;15.17;65.60
35888;BME280;21990;42.540;23.496;2023-10-09T03:17:31;94141.56;;;15.15;65.42
35888;BME280;21990;42.540;23.496;2023-10-09T03:20:02;94136.09;;;15.17;65.41
35888;BME280;21990;42.540;23.496;2023-10-09T03:22:30;94136.75;;;15.10;65.18
35888;BME280;21990;42.540;23.496;2023-10-09T03:24:56;94130.66;;;15.06;65.18
35888;BME280;21990;42.540;23.496;2023-10-09T03:27:21;94143.66;;;15.01;65.59
35888;BME280;21990;42.540;23.496;2023-10-09T03:29:47;94150.41;;;14.98;65.27
35888;BME280;21990;42.540;23.496;2023-10-09T03:32:17;94160.69;;;14.88;65.10
35888;BME280;21990;42.540;23.496;2023-10-09T03:34:44;94169.31;;;14.83;65.51
35888;BME280;21990;42.540;23.496;2023-10-09T03:37:11;94162.34;;;14.84;65.27
35888;BME280;21990;42.540;23.496;2023-10-09T03:39:59;94180.34;;;14.60;65.68
35888;BME280;21990;42.540;23.496;2023-10-09T03:42:24;94173.59;;;14.50;66.34
35888;BME280;21990;42.540;23.496;2023-10-09T03:44:50;94178.06;;;14.45;66.76
35888;BME280;21990;42.540;23.496;2023-10-09T03:47:19;94182.41;;;14.46;66.58
35888;BME280;21990;42.540;23.496;2023-10-09T03:49:51;94182.75;;;14.43;66.93
35888;BME280;21990;42.540;23.496;2023-10-09T03:52:18;94174.94;;;14.30;66.98
35888;BME280;21990;42.540;23.496;2023-10-09T03:54:45;94181.16;;;14.28;67.11
35888;BME280;21990;42.540;23.496;2023-10-09T03:57:15;94176.97;;;14.16;67.36
35888;BME280;21990;42.540;23.496;2023-10-09T03:59:49;94175.81;;;14.12;67.50
35888;BME280;21990;42.540;23.496;2023-10-09T04:02:17;94177.06;;;13.98;67.70
35888;BME280;21990;42.540;23.496;2023-10-09T04:04:43;94186.88;;;13.97;67.89
35888;BME280;21990;42.540;23.496;2023-10-09T04:07:13;94187.81;;;13.86;67.83
35888;BME280;21990;42.540;23.496;2023-10-09T04:09:42;94191.41;;;13.87;68.06
35888;BME280;21990;42.540;23.496;2023-10-09T04:12:10;94191.19;;;13.85;67.90
35888;BME280;21990;42.540;23.496;2023-10-09T04:14:41;94186.00;;;13.70;68.66
35888;BME280;21990;42.540;23.496;2023-10-09T04:17:15;94191.53;;;13.62;68.48
35888;BME280;21990;42.540;23.496;2023-10-09T04:19:47;94192.28;;;13.63;68.05
35888;BME280;21990;42.540;23.496;2023-10-09T04:22:39;94181.75;;;13.45;68.97
35888;BME280;21990;42.540;23.496;2023-10-09T04:25:17;94191.34;;;13.42;68.54
35888;BME280;21990;42.540;23.496;2023-10-09T04:27:52;94190.94;;;13.51;68.00
35888;BME280;21990;42.540;23.496;2023-10-09T04:30:21;94203.13;;;13.46;67.60
35888;BME280;21990;42.540;23.496;2023-10-09T04:32:49;94197.53;;;13.40;67.51
35888;BME280;21990;42.540;23.496;2023-10-09T04:35:14;94196.69;;;13.45;67.16
35888;BME280;21990;42.540;23.496;2023-10-09T04:37:51;94209.09;;;13.42;67.16
35888;BME280;21990;42.540;23.496;2023-10-09T04:40:30;94208.84;;;13.40;66.99
35888;BME280;21990;42.540;23.496;2023-10-09T04:43:17;94209.09;;;13.42;67.48
35888;BME280;21990;42.540;23.496;2023-10-09T04:45:47;94203.72;;;13.39;67.03
35888;BME280;21990;42.540;23.496;2023-10-09T04:48:45;94207.00;;;13.43;67.20
35888;BME280;21990;42.540;23.496;2023-10-09T04:51:11;94201.66;;;13.39;67.03
35888;BME280;21990;42.540;23.496;2023-10-09T04:53:55;94204.88;;;13.30;67.32
35888;BME280;21990;42.540;23.496;2023-10-09T04:56:38;94200.28;;;13.27;66.71
35888;BME280;21990;42.540;23.496;2023-10-09T04:59:18;94206.38;;;13.31;65.99
35888;BME280;21990;42.540;23.496;2023-10-09T05:01:44;94198.91;;;13.34;64.78
35888;BME280;21990;42.540;23.496;2023-10-09T05:04:15;94193.56;;;13.30;64.07
35888;BME280;21990;42.540;23.496;2023-10-09T05:06:59;94207.16;;;13.31;64.13
35888;BME280;21990;42.540;23.496;2023-10-09T05:09:24;94206.63;;;13.33;64.14
35888;BME280;21990;42.540;23.496;2023-10-09T05:11:51;94215.28;;;13.41;63.75
35888;BME280;21990;42.540;23.496;2023-10-09T05:14:16;94216.03;;;13.41;63.04
35888;BME280;21990;42.540;23.496;2023-10-09T05:16:42;94212.97;;;13.39;61.79
35888;BME280;21990;42.540;23.496;2023-10-09T05:19:22;94212.75;;;13.37;62.05
35888;BME280;21990;42.540;23.496;2023-10-09T05:21:59;94221.47;;;13.39;61.60
35888;BME280;21990;42.540;23.496;2023-10-09T05:24:33;94220.69;;;13.39;61.18
35888;BME280;21990;42.540;23.496;2023-10-09T05:27:09;94215.91;;;13.34;60.70
35888;BME280;21990;42.540;23.496;2023-10-09T05:29:43;94220.22;;;13.35;60.72
35888;BME280;21990;42.540;23.496;2023-10-09T05:32:24;94220.69;;;13.39;60.04
35888;BME280;21990;42.540;23.496;2023-10-09T05:35:00;94221.56;;;13.34;58.59
35888;BME280;21990;42.540;23.496;2023-10-09T05:37:30;94219.50;;;13.34;58.64
35888;BME280;21990;42.540;23.496;2023-10-09T05:40:03;94237.75;;;13.33;58.13
35888;BME280;21990;42.540;23.496;2023-10-09T05:42:42;94241.88;;;13.32;58.42
35888;BME280;21990;42.540;23.496;2023-10-09T05:45:10;94251.38;;;13.35;57.57
35888;BME280;21990;42.540;23.496;2023-10-09T05:47:42;94251.47;;;13.48;58.24
35888;BME280;21990;42.540;23.496;2023-10-09T05:50:24;94248.53;;;13.72;56.55
35888;BME280;21990;42.540;23.496;2023-10-09T05:52:50;94257.59;;;14.34;58.04
35888;BME280;21990;42.540;23.496;2023-10-09T05:55:16;94254.69;;;14.98;53.58
35888;BME280;21990;42.540;23.496;2023-10-09T05:58:01;94257.47;;;15.37;52.55
35888;BME280;21990;42.540;23.496;2023-10-09T06:00:45;94261.28;;;15.79;51.30
35888;BME280;21990;42.540;23.496;2023-10-09T06:03:29;94268.13;;;16.38;49.81
35888;BME280;21990;42.540;23.496;2023-10-09T06:06:13;94282.09;;;16.91;48.95
35888;BME280;21990;42.540;23.496;2023-10-09T06:09:05;94289.41;;;17.64;46.87
35888;BME280;21990;42.540;23.496;2023-10-09T06:11:40;94291.50;;;18.88;45.71
35888;BME280;21990;42.540;23.496;2023-10-09T06:14:12;94289.63;;;18.98;44.35
35888;BME280;21990;42.540;23.496;2023-10-09T06:16:42;94291.88;;;19.07;43.51
35888;BME280;21990;42.540;23.496;2023-10-09T06:19:09;94287.56;;;19.92;42.74
35888;BME280;21990;42.540;23.496;2023-10-09T06:21:51;94287.28;;;19.65;41.35
35888;BME280;21990;42.540;23.496;2023-10-09T06:24:20;94290.88;;;19.58;41.27
35888;BME280;21990;42.540;23.496;2023-10-09T06:26:49;94299.44;;;19.65;41.39
35888;BME280;21990;42.540;23.496;2023-10-09T06:29:27;94304.78;;;19.76;39.27
35888;BME280;21990;42.540;23.496;2023-10-09T06:32:06;94311.22;;;19.92;39.42
35888;BME280;21990;42.540;23.496;2023-10-09T06:34:45;94304.72;;;19.92;40.06
35888;BME280;21990;42.540;23.496;2023-10-09T06:37:12;94297.38;;;20.13;39.80
35888;BME280;21990;42.540;23.496;2023-10-09T06:39:54;94297.22;;;19.49;38.08
35888;BME280;21990;42.540;23.496;2023-10-09T06:42:23;94312.47;;;18.98;39.76
35888;BME280;21990;42.540;23.496;2023-10-09T06:45:06;94308.53;;;18.42;41.60
35888;BME280;21990;42.540;23.496;2023-10-09T06:47:34;94310.06;;;18.43;40.20
35888;BME280;21990;42.540;23.496;2023-10-09T06:50:29;94324.81;;;18.12;41.80
35888;BME280;21990;42.540;23.496;2023-10-09T06:53:14;94319.91;;;18.27;41.12
35888;BME280;21990;42.540;23.496;2023-10-09T06:55:40;94318.44;;;18.41;41.65
35888;BME280;21990;42.540;23.496;2023-10-09T06:58:21;94313.44;;;18.27;43.38
35888;BME280;21990;42.540;23.496;2023-10-09T07:01:10;94317.28;;;18.37;40.74
35888;BME280;21990;42.540;23.496;2023-10-09T07:03:58;94321.06;;;18.24;40.92
35888;BME280;21990;42.540;23.496;2023-10-09T07:06:36;94321.47;;;18.36;40.99
35888;BME280;21990;42.540;23.496;2023-10-09T07:09:02;94327.22;;;18.51;40.60
35888;BME280;21990;42.540;23.496;2023-10-09T07:11:43;94333.47;;;18.42;41.17
35888;BME280;21990;42.540;23.496;2023-10-09T07:14:16;94335.22;;;18.53;40.71
35888;BME280;21990;42.540;23.496;2023-10-09T07:17:00;94338.03;;;18.45;41.89
35888;BME280;21990;42.540;23.496;2023-10-09T07:19:27;94327.00;;;18.49;39.67
35888;BME280;21990;42.540;23.496;2023-10-09T07:22:05;94328.22;;;18.61;41.31
35888;BME280;21990;42.540;23.496;2023-10-09T07:24:42;94333.91;;;18.54;39.07
35888;BME280;21990;42.540;23.496;2023-10-09T07:27:20;94331.75;;;18.46;39.42
35888;BME280;21990;42.540;23.496;2023-10-09T07:30:07;94332.69;;;18.41;38.75
35888;BME280;21990;42.540;23.496;2023-10-09T07:32:53;94335.38;;;18.47;40.16
35888;BME280;21990;42.540;23.496;2023-10-09T07:35:20;94331.38;;;18.42;39.80
35888;BME280;21990;42.540;23.496;2023-10-09T07:38:06;94333.28;;;18.40;39.50
35888;BME280;21990;42.540;23.496;2023-10-09T07:40:38;94328.28;;;18.33;38.58
35888;BME280;21990;42.540;23.496;2023-10-09T07:43:28;94339.88;;;18.27;38.25
35888;BME280;21990;42.540;23.496;2023-10-09T07:48:59;94328.53;;;18.42;38.13
35888;BME280;21990;42.540;23.496;2023-10-09T07:51:38;94323.38;;;18.48;37.92
35888;BME280;21990;42.540;23.496;2023-10-09T07:54:09;94318.31;;;18.62;39.13
35888;BME280;21990;42.540;23.496;2023-10-09T07:56:39;94320.63;;;18.71;37.19
35888;BME280;21990;42.540;23.496;2023-10-09T07:59:15;94314.88;;;18.64;37.39
35888;BME280;21990;42.540;23.496;2023-10-09T08:01:45;94316.63;;;18.67;38.13
35888;BME280;21990;42.540;23.496;2023-10-09T08:04:26;94321.19;;;18.85;37.88
35888;BME280;21990;42.540;23.496;2023-10-09T08:07:06;94329.78;;;18.92;37.21
35888;BME280;21990;42.540;23.496;2023-10-09T08:09:33;94315.50;;;18.92;36.15
35888;BME280;21990;42.540;23.496;2023-10-09T08:12:16;94318.34;;;18.92;35.94
35888;BME280;21990;42.540;23.496;2023-10-09T08:15:05;94320.66;;;18.94;35.66
35888;BME280;21990;42.540;23.496;2023-10-09T08:17:50;94318.91;;;18.91;36.04
35888;BME280;21990;42.540;23.496;2023-10-09T08:20:26;94315.09;;;18.88;36.83
35888;BME280;21990;42.540;23.496;2023-10-09T08:22:53;94317.19;;;18.88;37.52
35888;BME280;21990;42.540;23.496;2023-10-09T08:25:22;94305.97;;;18.90;36.98
35888;BME280;21990;42.540;23.496;2023-10-09T08:27:59;94304.84;;;18.93;36.57
35888;BME280;21990;42.540;23.496;2023-10-09T08:30:46;94304.44;;;19.04;36.57
35888;BME280;21990;42.540;23.496;2023-10-09T08:33:14;94312.25;;;19.11;36.07
35888;BME280;21990;42.540;23.496;2023-10-09T08:35:56;94312.06;;;19.17;36.04
35888;BME280;21990;42.540;23.496;2023-10-09T08:38:29;94299.88;;;19.16;34.94
35888;BME280;21990;42.540;23.496;2023-10-09T08:41:06;94301.03;;;19.21;35.69
35888;BME280;21990;42.540;23.496;2023-10-09T08:43:52;94294.91;;;19.32;36.57
35888;BME280;21990;42.540;23.496;2023-10-09T08:46:26;94283.31;;;19.45;35.55
35888;BME280;21990;42.540;23.496;2023-10-09T08:48:56;94296.63;;;19.42;36.07
35888;BME280;21990;42.540;23.496;2023-10-09T08:51:27;94276.63;;;19.42;34.75
35888;BME280;21990;42.540;23.496;2023-10-09T08:53:55;94273.38;;;19.46;35.40
35888;BME280;21990;42.540;23.496;2023-10-09T08:56:22;94272.97;;;19.57;36.72
35888;BME280;21990;42.540;23.496;2023-10-09T08:58:57;94276.75;;;19.75;36.28
35888;BME280;21990;42.540;23.496;2023-10-09T09:01:23;94281.69;;;19.82;34.75
35888;BME280;21990;42.540;23.496;2023-10-09T09:03:50;94271.03;;;19.75;35.48
35888;BME280;21990;42.540;23.496;2023-10-09T09:06:19;94272.66;;;19.93;35.65
35888;BME280;21990;42.540;23.496;2023-10-09T09:08:45;94276.88;;;19.92;35.22
35888;BME280;21990;42.540;23.496;2023-10-09T09:11:21;94270.56;;;19.94;36.05
35888;BME280;21990;42.540;23.496;2023-10-09T09:16:31;94267.50;;;19.99;35.67
35888;BME280;21990;42.540;23.496;2023-10-09T09:19:04;94271.84;;;20.08;35.69
35888;BME280;21990;42.540;23.496;2023-10-09T09:21:41;94255.41;;;20.16;34.31
35888;BME280;21990;42.540;23.496;2023-10-09T09:24:09;94264.53;;;20.22;34.98
35888;BME280;21990;42.540;23.496;2023-10-09T09:27:01;94270.25;;;19.74;34.65
35888;BME280;21990;42.540;23.496;2023-10-09T09:32:03;94264.06;;;20.01;35.24
35888;BME280;21990;42.540;23.496;2023-10-09T09:34:51;94252.94;;;20.12;36.80
35888;BME280;21990;42.540;23.496;2023-10-09T09:37:21;94258.22;;;20.31;36.16
35888;BME280;21990;42.540;23.496;2023-10-09T09:39:50;94260.50;;;20.32;34.94
35888;BME280;21990;42.540;23.496;2023-10-09T09:42:18;94250.75;;;20.35;35.74
35888;BME280;21990;42.540;23.496;2023-10-09T09:44:54;94256.59;;;20.45;35.92
35888;BME280;21990;42.540;23.496;2023-10-09T09:47:36;94254.81;;;20.57;36.42
35888;BME280;21990;42.540;23.496;2023-10-09T09:50:05;94252.88;;;20.60;34.62
35888;BME280;21990;42.540;23.496;2023-10-09T09:52:38;94246.94;;;20.65;35.63
35888;BME280;21990;42.540;23.496;2023-10-09T09:55:08;94248.38;;;20.74;36.30
35888;BME280;21990;42.540;23.496;2023-10-09T09:57:40;94241.84;;;20.81;34.90
35888;BME280;21990;42.540;23.496;2023-10-09T10:00:08;94241.66;;;20.79;36.67
35888;BME280;21990;42.540;23.496;2023-10-09T10:02:56;94231.16;;;20.81;33.33
35888;BME280;21990;42.540;23.496;2023-10-09T10:05:25;94226.13;;;20.65;35.03
35888;BME280;21990;42.540;23.496;2023-10-09T10:07:57;94223.78;;;20.71;33.15
35888;BME280;21990;42.540;23.496;2023-10-09T10:10:34;94228.88;;;20.80;33.43
35888;BME280;21990;42.540;23.496;2023-10-09T10:13:03;94215.72;;;20.77;33.33
35888;BME280;21990;42.540;23.496;2023-10-09T10:16:04;94207.91;;;20.77;33.57
35888;BME280;21990;42.540;23.496;2023-10-09T10:18:59;94199.81;;;20.83;33.63
35888;BME280;21990;42.540;23.496;2023-10-09T10:21:36;94192.31;;;20.88;31.90
35888;BME280;21990;42.540;23.496;2023-10-09T10:27:17;94189.13;;;20.84;35.00
35888;BME280;21990;42.540;23.496;2023-10-09T10:35:18;94174.31;;;20.95;33.46
35888;BME280;21990;42.540;23.496;2023-10-09T10:37:46;94182.13;;;20.95;35.54
35888;BME280;21990;42.540;23.496;2023-10-09T10:40:32;94164.03;;;20.92;33.99
35888;BME280;21990;42.540;23.496;2023-10-09T10:43:06;94164.09;;;20.84;34.37
35888;BME280;21990;42.540;23.496;2023-10-09T10:45:38;94164.94;;;20.95;33.96
35888;BME280;21990;42.540;23.496;2023-10-09T10:48:09;94150.22;;;20.98;34.16
35888;BME280;21990;42.540;23.496;2023-10-09T10:50:57;94147.94;;;20.97;34.14
35888;BME280;21990;42.540;23.496;2023-10-09T10:53:23;94155.94;;;20.98;34.13
35888;BME280;21990;42.540;23.496;2023-10-09T10:55:57;94145.56;;;21.03;33.35
35888;BME280;21990;42.540;23.496;2023-10-09T10:58:22;94127.75;;;21.12;34.46
35888;BME280;21990;42.540;23.496;2023-10-09T11:01:00;94128.44;;;21.20;34.00
35888;BME280;21990;42.540;23.496;2023-10-09T11:03:37;94122.63;;;21.27;34.35
35888;BME280;21990;42.540;23.496;2023-10-09T11:06:29;94127.59;;;21.27;36.20
35888;BME280;21990;42.540;23.496;2023-10-09T11:09:07;94121.59;;;21.33;34.19
35888;BME280;21990;42.540;23.496;2023-10-09T11:11:51;94124.78;;;21.37;34.19
35888;BME280;21990;42.540;23.496;2023-10-09T11:14:20;94118.13;;;21.34;33.69
35888;BME280;21990;42.540;23.496;2023-10-09T11:16:51;94118.97;;;21.44;34.49
35888;BME280;21990;42.540;23.496;2023-10-09T11:19:22;94112.97;;;21.50;33.31
35888;BME280;21990;42.540;23.496;2023-10-09T11:21:55;94108.09;;;21.43;35.07
35888;BME280;21990;42.540;23.496;2023-10-09T11:24:35;94095.44;;;21.46;33.99
35888;BME280;21990;42.540;23.496;2023-10-09T11:27:01;94100.59;;;21.47;34.07
35888;BME280;21990;42.540;23.496;2023-10-09T11:29:34;94089.34;;;21.59;33.49
35888;BME280;21990;42.540;23.496;2023-10-09T11:32:06;94078.22;;;21.63;33.40
35888;BME280;21990;42.540;23.496;2023-10-09T11:34:34;94069.59;;;21.63;33.06
35888;BME280;21990;42.540;23.496;2023-10-09T11:37:02;94064.59;;;21.63;33.95
35888;BME280;21990;42.540;23.496;2023-10-09T11:39:29;94055.53;;;21.57;33.46
35888;BME280;21990;42.540;23.496;2023-10-09T11:42:00;94054.72;;;21.47;32.75
35888;BME280;21990;42.540;23.496;2023-10-09T11:44:36;94053.09;;;21.54;33.30
35888;BME280;21990;42.540;23.496;2023-10-09T11:47:04;94041.44;;;21.52;33.46
35888;BME280;21990;42.540;23.496;2023-10-09T11:49:50;94033.44;;;21.50;34.56
35888;BME280;21990;42.540;23.496;2023-10-09T11:52:30;94049.13;;;21.49;33.32
35888;BME280;21990;42.540;23.496;2023-10-09T11:55:11;94054.53;;;21.45;33.17
35888;BME280;21990;42.540;23.496;2023-10-09T11:57:40;94044.41;;;21.44;33.30
35888;BME280;21990;42.540;23.496;2023-10-09T12:00:05;94059.34;;;21.43;32.81
35888;BME280;21990;42.540;23.496;2023-10-09T12:02:54;94047.03;;;21.33;33.45
35888;BME280;21990;42.540;23.496;2023-10-09T12:05:20;94039.53;;;21.37;32.78
35888;BME280;21990;42.540;23.496;2023-10-09T12:07:45;94037.00;;;21.41;32.92
35888;BME280;21990;42.540;23.496;2023-10-09T12:10:11;94046.22;;;21.40;33.47
35888;BME280;21990;42.540;23.496;2023-10-09T12:12:40;94027.97;;;21.45;33.37
35888;BME280;21990;42.540;23.496;2023-10-09T12:15:06;94025.88;;;21.45;33.02
35888;BME280;21990;42.540;23.496;2023-10-09T12:17:31;94028.06;;;21.37;33.38
35888;BME280;21990;42.540;23.496;2023-10-09T12:19:57;94012.53;;;21.40;32.66
35888;BME280;21990;42.540;23.496;2023-10-09T12:22:24;94008.41;;;21.51;33.59
35888;BME280;21990;42.540;23.496;2023-10-09T12:24:52;94002.78;;;21.43;35.76
35888;BME280;21990;42.540;23.496;2023-10-09T12:27:18;94003.78;;;21.38;33.75
35888;BME280;21990;42.540;23.496;2023-10-09T12:29:45;94000.44;;;21.32;32.49
35888;BME280;21990;42.540;23.496;2023-10-09T12:32:11;94007.03;;;21.25;34.42
35888;BME280;21990;42.540;23.496;2023-10-09T12:34:36;93997.19;;;21.18;34.73
35888;BME280;21990;42.540;23.496;2023-10-09T12:37:03;94001.91;;;21.23;33.31
35888;BME280;21990;42.540;23.496;2023-10-09T12:39:29;94002.16;;;21.18;34.71
35888;BME280;21990;42.540;23.496;2023-10-09T12:42:05;94008.16;;;21.12;36.10
35888;BME280;21990;42.540;23.496;2023-10-09T12:44:33;93995.34;;;20.96;35.66
35888;BME280;21990;42.540;23.496;2023-10-09T12:47:07;93993.97;;;20.97;34.46
35888;BME280;21990;42.540;23.496;2023-10-09T12:49:33;93994.91;;;20.82;37.07
35888;BME280;21990;42.540;23.496;2023-10-09T12:51:58;93990.97;;;20.78;35.98
35888;BME280;21990;42.540;23.496;2023-10-09T12:54:27;93986.75;;;20.79;33.21
35888;BME280;21990;42.540;23.496;2023-10-09T12:56:55;93987.09;;;20.83;34.74
35888;BME280;21990;42.540;23.496;2023-10-09T12:59:21;93981.53;;;20.85;35.35
35888;BME280;21990;42.540;23.496;2023-10-09T13:01:47;93978.25;;;20.71;36.90
35888;BME280;21990;42.540;23.496;2023-10-09T13:04:17;93973.47;;;20.57;36.92
35888;BME280;21990;42.540;23.496;2023-10-09T13:06:46;93965.88;;;20.52;35.97
35888;BME280;21990;42.540;23.496;2023-10-09T13:09:15;93959.81;;;20.48;37.45
35888;BME280;21990;42.540;23.496;2023-10-09T13:11:49;93959.94;;;20.15;37.35
35888;BME280;21990;42.540;23.496;2023-10-09T13:14:16;93965.13;;;20.09;38.02
35888;BME280;21990;42.540;23.496;2023-10-09T13:16:47;93955.09;;;20.01;38.15
35888;BME280;21990;42.540;23.496;2023-10-09T13:19:15;93964.16;;;19.89;39.61
35888;BME280;21990;42.540;23.496;2023-10-09T13:21:42;93947.78;;;19.90;38.29
35888;BME280;21990;42.540;23.496;2023-10-09T13:24:08;93951.53;;;19.75;39.47
35888;BME280;21990;42.540;23.496;2023-10-09T13:26:44;93949.50;;;19.68;37.76
35888;BME280;21990;42.540;23.496;2023-10-09T13:29:11;93940.38;;;19.62;36.96
35888;BME280;21990;42.540;23.496;2023-10-09T13:31:37;93936.69;;;19.69;38.35
35888;BME280;21990;42.540;23.496;2023-10-09T13:34:03;93933.69;;;19.67;40.85
35888;BME280;21990;42.540;23.496;2023-10-09T13:36:31;93932.84;;;19.50;43.01
35888;BME280;21990;42.540;23.496;2023-10-09T13:38:57;93938.84;;;19.36;42.90